Grizzly Air Cargo 5110


PANC
Ted Stevens Anchorage International Airport
Anchorage, Alaska, US
PAJN
Juneau International Airport
Juneau, Alaska, US

Activity Log

Date Flight Route Aircraft Duration
12/11/2019 GRZ5110 NOEND JOH J501 YAK J541 SSR B722 1h 44m
09/27/2019 GRZ501 NOEND JOH J501 YAK J541 SSR B722 1h 17m
09/24/2019 GRZ531 NOEND JOH J501 YAK J541 SSR B738 1h 33m
08/28/2019 GRZ531 NOEND JOH J501 YAK J541 SSR B738 1h 14m
07/23/2019 GRZ531 NOEND JOH J501 YAK J541 SSR B738 1h 39m
06/30/2019 GRZ501 NOEND JOH J501 YAK J541 SSR B722 1h 43m
05/09/2019 GRZ501 JOH J501 YAK J541 SSR B722 1h 33m
03/19/2019 GRZ501 YESKA J501 YAK J541 SSR B722 1h 32m
03/07/2019 GRZ501 NOEND JOH J501 YAK J541 SSR B722 1h 32m

Route Details

Aircraft Information
Primary: Boeing 727-200F
Backup: Boeing 737-800BCF
Route Data
Distance: 496nm
Sched. Duration: 1h 50m
Avg. Duration: 1h 32m (-18m)
Times Flown: 9
Recm'd Route: NOEND JOH J501 YAK J541 SSR
Planned Altitude: 31,000ft
Origin Wx: PANC 181553Z 22003KT 1/2SM R07R/5500V6000FT SN VV008 00/00 A2961 RMK AO2 SLP029 P0011 T00000000 $
Dest. Wx: PAJN 181553Z 08012KT 10SM -RA FEW005 BKN043 OVC055 02/01 A3029 RMK AO2 SLP256 RAE26B48 P0000 T00170006
Notes:

Financial History
Total Freight: 308,152lbs
Average Load: 34,239lbs/flt
Fuel Used: 100,832lbs
Avg. Fuel Used: 11,204lbs/flt
Fuel Expense: $125,816
Avg. Fuel Expense: $13,980
Avg. Fuel Cost: $1.25/lbs
Total Gross Income: $441,904
Pilot Pay: $1,501
Total Expenses: $48,194
Total Revenue: $265,379
Average Revenue: $49,100.42